Annalong, United Kingdom
Current Conditions -  °F | °C
As of 8:20 AM on Thursday 18 Dec 2014 (Local Time) from EGAC Reporting Station
Drizzle Drizzle  
Wind Chill: 54°   Ceiling: 3500
Heat Index: 54°   Visibility: 6mi
Dew Point: 52°   Wind: 22mph
Humidity: 94%   Direction: 230°SW
Pressure: 29.41"   Gusts: NA
Location:  54.11°N, 5.9°W
Report Text: EGAC 180820Z 23019KT 9999 -DZ FEW012 SCT020 BKN035 12/11 Q0996
Loading
Personal Weather Stations






























Interactive Weather Map New forecast layout! Learn more

10-Day Weather Forecast

Advertisements
Track Severe Weather on mobile